fbpx

Weather

Glasgow International Airport – EGPF

METAR:

EGPF 240920Z AUTO 19018KT 9999 -RA BKN025/// //////TCU 11/09 Q1005


TAF:

TAF EGPF 240504Z 2406/2506 21005KT 9999 SCT012 BKN016 BECMG 2406/2408 20015KT TEMPO 2406/2423 6000 RA BKN010 PROB40 TEMPO 2406/2421 3000 RADZ BKN004 TEMPO 2407/2415 20018G32KT BECMG 2412/2415 27007KT PROB30 TEMPO 2504/2506 6000 SHRA BKN014


Prestwick International Airport – EGPK

METAR:

EGPK 240920Z 18015KT 9999 -RA SCT020 BKN024 11/09 Q1006


TAF:

TAF TAF EGPK 240504Z 2406/2506 20008KT 9999 SCT012 BKN020 TEMPO 2406/2422 6000 RA BKN010 PROB40 TEMPO 2406/2420 3000 RADZ BKN004 PROB40 TEMPO 2406/2409 20015G28KT TEMPO 2409/2414 20020G35KT BECMG 2412/2415 28009KT PROB30 TEMPO 2504/2506 6000 SHRA BKN014

Call Now ButtonCall us now